createdAt,value
2023-03-03T00:04:11.390Z,7.87
2023-03-03T00:09:16.073Z,7.57
2023-03-03T00:14:24.189Z,7.47
2023-03-03T00:19:27.488Z,7.33
2023-03-03T00:24:38.434Z,8.00
2023-03-03T00:29:46.276Z,8.07
2023-03-03T00:34:50.167Z,7.47
2023-03-03T00:39:54.971Z,7.93
2023-03-03T00:44:59.515Z,8.03
2023-03-03T00:50:28.131Z,8.23
2023-03-03T00:55:34.332Z,7.90
2023-03-03T01:00:38.282Z,7.77
2023-03-03T01:05:41.926Z,8.10
2023-03-03T01:10:51.013Z,9.10
2023-03-03T01:15:55.128Z,7.80
2023-03-03T01:20:58.494Z,8.80
2023-03-03T01:26:03.308Z,8.87
2023-03-03T01:31:07.426Z,8.43
2023-03-03T01:36:11.103Z,9.00
2023-03-03T01:41:15.827Z,8.57
2023-03-03T01:46:46.119Z,7.87
2023-03-03T01:51:53.492Z,8.30
2023-03-03T01:57:02.615Z,8.43
2023-03-03T02:02:06.379Z,8.57
2023-03-03T02:07:11.758Z,9.23
2023-03-03T02:12:20.259Z,8.57
2023-03-03T02:17:23.733Z,8.67
2023-03-03T02:22:37.417Z,8.40
2023-03-03T02:27:42.242Z,8.47
2023-03-03T02:32:45.514Z,8.03
2023-03-03T02:37:48.848Z,8.60
2023-03-03T02:42:55.280Z,8.47
2023-03-03T02:47:58.564Z,8.67
2023-03-03T02:53:01.816Z,7.93
2023-03-03T02:58:06.552Z,8.63
2023-03-03T03:03:09.921Z,9.40
2023-03-03T03:08:13.210Z,8.57
2023-03-03T03:13:18.111Z,8.87
2023-03-03T03:18:21.717Z,9.17
2023-03-03T03:23:25.050Z,9.40
2023-03-03T03:28:29.931Z,11.30
2023-03-03T03:33:33.732Z,9.30
2023-03-03T03:38:37.905Z,9.17
2023-03-03T03:43:42.663Z,8.50
2023-03-03T03:48:46.614Z,8.43
2023-03-03T03:53:49.911Z,8.80
2023-03-03T03:58:54.612Z,9.30
2023-03-03T04:03:57.949Z,9.17
2023-03-03T04:09:01.256Z,8.23
2023-03-03T04:14:06.398Z,8.80
2023-03-03T04:19:09.708Z,8.67
2023-03-03T04:24:13.009Z,8.60
2023-03-03T04:29:17.697Z,8.73
2023-03-03T04:34:21.019Z,9.23
2023-03-03T04:39:24.446Z,8.67
2023-03-03T04:44:29.185Z,8.23
2023-03-03T04:49:32.509Z,9.03
2023-03-03T04:54:35.920Z,9.57
2023-03-03T04:59:40.617Z,9.40
2023-03-03T05:04:44.055Z,9.30
2023-03-03T05:09:47.441Z,9.73
2023-03-03T05:14:52.155Z,9.60
2023-03-03T05:19:57.342Z,9.30
2023-03-03T05:25:00.595Z,9.03
2023-03-03T05:30:06.000Z,10.07
2023-03-03T05:35:09.887Z,9.87
2023-03-03T05:40:14.549Z,10.17
2023-03-03T05:45:21.339Z,9.80
2023-03-03T05:50:25.366Z,9.67
2023-03-03T05:55:28.715Z,9.37
2023-03-03T06:00:33.556Z,9.37
2023-03-03T06:05:37.425Z,9.10
2023-03-03T06:10:40.764Z,9.97
2023-03-03T06:15:45.665Z,9.30
2023-03-03T06:20:53.694Z,8.97
2023-03-03T06:25:57.213Z,9.60
2023-03-03T06:31:01.955Z,10.00
2023-03-03T06:36:05.923Z,9.30
2023-03-03T06:41:09.225Z,8.70
2023-03-03T06:46:14.006Z,9.37
2023-03-03T06:51:24.820Z,9.70
2023-03-03T06:56:28.969Z,9.83
2023-03-03T07:01:37.558Z,9.70
2023-03-03T07:06:40.884Z,9.30
2023-03-03T07:11:46.603Z,9.07
2023-03-03T07:16:57.823Z,9.20
2023-03-03T07:22:07.919Z,8.67
2023-03-03T07:27:15.060Z,10.30
2023-03-03T07:32:28.636Z,9.60
2023-03-03T07:37:36.905Z,8.63
2023-03-03T07:42:44.332Z,8.30
2023-03-03T07:47:49.675Z,9.03
2023-03-03T07:52:58.101Z,9.40
2023-03-03T07:58:18.522Z,8.27
2023-03-03T08:03:23.567Z,9.10
2023-03-03T08:08:31.788Z,8.87
2023-03-03T08:13:39.582Z,7.93
2023-03-03T08:18:47.816Z,8.03
2023-03-03T08:23:53.373Z,7.13
2023-03-03T08:28:56.826Z,7.43
2023-03-03T08:34:01.813Z,7.97
2023-03-03T08:39:06.302Z,7.43
2023-03-03T08:44:09.557Z,7.70
2023-03-03T08:49:14.239Z,7.90
2023-03-03T08:54:17.525Z,6.93
2023-03-03T08:59:22.424Z,8.17
2023-03-03T09:04:27.720Z,7.70
2023-03-03T09:09:31.119Z,8.27
2023-03-03T09:14:34.468Z,7.83
2023-03-03T09:19:39.638Z,7.93
2023-03-03T09:24:44.177Z,8.27
2023-03-03T09:29:48.662Z,8.90
2023-03-03T09:34:53.409Z,8.57
2023-03-03T09:39:58.666Z,8.40
2023-03-03T09:45:37.406Z,8.23
2023-03-03T09:50:52.859Z,8.27
2023-03-03T09:56:00.693Z,8.60
2023-03-03T10:01:23.188Z,8.13
2023-03-03T10:06:32.943Z,8.43
2023-03-03T10:11:42.994Z,8.60
2023-03-03T10:17:10.028Z,8.40
2023-03-03T10:22:21.199Z,8.53
2023-03-03T10:27:43.255Z,8.53
2023-03-03T10:32:54.706Z,8.40
2023-03-03T10:38:14.916Z,8.27
2023-03-03T10:43:34.344Z,8.07
2023-03-03T10:49:02.328Z,8.60
2023-03-03T10:54:19.085Z,8.17
2023-03-03T10:59:38.648Z,8.73
2023-03-03T11:05:03.876Z,9.30
2023-03-03T11:10:25.679Z,9.47
2023-03-03T11:15:41.413Z,11.33
2023-03-03T11:20:51.087Z,10.53
2023-03-03T11:26:08.996Z,11.40
2023-03-03T11:31:22.531Z,11.43
2023-03-03T11:36:34.840Z,10.90
2023-03-03T11:41:42.533Z,12.20
2023-03-03T11:46:50.769Z,11.93
2023-03-03T11:52:06.520Z,11.47
2023-03-03T11:57:20.064Z,11.80
2023-03-03T12:02:52.398Z,12.00
2023-03-03T12:08:05.011Z,12.07
2023-03-03T12:13:16.015Z,11.13
2023-03-03T12:19:01.389Z,11.53
2023-03-03T12:24:23.441Z,11.37
2023-03-03T12:29:39.289Z,12.23
2023-03-03T12:34:52.955Z,13.07
2023-03-03T12:40:06.549Z,13.40
2023-03-03T12:45:24.182Z,12.23
2023-03-03T12:50:37.638Z,12.37
2023-03-03T12:55:50.510Z,12.40
2023-03-03T13:01:02.110Z,11.80
2023-03-03T13:06:12.364Z,12.57
2023-03-03T13:11:44.178Z,11.67
2023-03-03T13:16:56.995Z,12.10
2023-03-03T13:22:08.700Z,10.63
2023-03-03T13:27:15.546Z,12.33
2023-03-03T13:32:23.507Z,12.90
2023-03-03T13:37:32.050Z,12.77
2023-03-03T13:42:41.934Z,13.10
2023-03-03T13:47:54.383Z,12.60
2023-03-03T13:53:27.123Z,13.30
2023-03-03T13:58:38.654Z,10.50
2023-03-03T14:04:15.362Z,12.63
2023-03-03T14:09:44.165Z,12.57
2023-03-03T14:14:58.476Z,13.10
2023-03-03T14:20:16.952Z,12.73
2023-03-03T14:25:20.581Z,17.77
2023-03-03T14:30:30.298Z,17.23
2023-03-03T14:35:36.964Z,17.80
2023-03-03T14:40:43.118Z,18.43
2023-03-03T14:45:46.451Z,17.43
2023-03-03T14:50:53.747Z,19.37
2023-03-03T14:55:57.129Z,17.20
2023-03-03T15:01:15.502Z,18.10
2023-03-03T15:06:42.995Z,18.83
2023-03-03T15:11:46.347Z,17.30
2023-03-03T15:16:49.742Z,18.90
2023-03-03T15:22:03.576Z,16.27
2023-03-03T15:27:13.681Z,18.20
2023-03-03T15:32:27.995Z,17.53
2023-03-03T15:37:43.567Z,18.73
2023-03-03T15:42:51.231Z,19.00
2023-03-03T15:48:18.337Z,19.63
2023-03-03T15:53:59.510Z,19.10
2023-03-03T15:59:51.244Z,19.67
2023-03-03T16:05:04.625Z,17.07
2023-03-03T16:10:19.805Z,17.73
2023-03-03T16:15:39.497Z,19.90
2023-03-03T16:20:52.851Z,19.93
2023-03-03T16:26:27.400Z,18.53
2023-03-03T16:31:37.338Z,19.57
2023-03-03T16:36:55.806Z,18.97
2023-03-03T16:42:07.471Z,18.83
2023-03-03T16:47:30.263Z,24.00
2023-03-03T16:52:40.272Z,20.77
2023-03-03T16:57:53.171Z,19.67
2023-03-03T17:03:21.798Z,23.13
2023-03-03T17:09:01.256Z,19.07
2023-03-03T17:14:37.260Z,20.30
2023-03-03T17:19:58.680Z,21.87
2023-03-03T17:25:13.978Z,22.37
2023-03-03T17:30:25.571Z,22.03
2023-03-03T17:35:48.682Z,22.50
2023-03-03T17:41:05.827Z,20.40
2023-03-03T17:46:19.313Z,22.60
2023-03-03T17:51:57.805Z,22.53
2023-03-03T17:57:13.861Z,22.37
2023-03-03T18:02:55.969Z,20.70
2023-03-03T18:08:14.986Z,21.77
2023-03-03T18:13:39.722Z,22.63
2023-03-03T18:19:02.920Z,22.03
2023-03-03T18:24:31.490Z,22.90
2023-03-03T18:29:35.750Z,20.93
2023-03-03T18:34:45.684Z,22.37
2023-03-03T18:39:51.993Z,23.53
2023-03-03T18:44:56.576Z,22.83
2023-03-03T18:50:16.603Z,22.40
2023-03-03T18:55:28.477Z,20.33
2023-03-03T19:00:33.773Z,22.63
2023-03-03T19:05:52.013Z,21.83
2023-03-03T19:10:59.605Z,21.23
2023-03-03T19:16:04.921Z,20.33
2023-03-03T19:21:22.594Z,19.23
2023-03-03T19:26:56.763Z,21.97
2023-03-03T19:32:13.106Z,21.97
2023-03-03T19:37:37.323Z,19.53
2023-03-03T19:42:48.186Z,20.07
2023-03-03T19:48:04.350Z,17.87
2023-03-03T19:53:23.973Z,18.40
2023-03-03T19:58:38.779Z,19.83
2023-03-03T20:04:19.266Z,21.63
2023-03-03T20:09:36.468Z,18.93
2023-03-03T20:14:46.540Z,19.87
2023-03-03T20:19:58.024Z,20.27
2023-03-03T20:25:15.055Z,21.30
2023-03-03T20:30:39.202Z,20.80
2023-03-03T20:35:57.610Z,19.57
2023-03-03T20:41:14.593Z,19.33
2023-03-03T20:46:24.404Z,20.50
2023-03-03T20:51:38.794Z,20.63
2023-03-03T20:56:52.526Z,19.47
2023-03-03T21:02:07.096Z,18.90
2023-03-03T21:07:26.502Z,17.43
2023-03-03T21:12:33.657Z,18.93
2023-03-03T21:17:42.365Z,19.33
2023-03-03T21:22:50.315Z,20.20
2023-03-03T21:28:17.079Z,20.03
2023-03-03T21:33:45.354Z,19.43
2023-03-03T21:38:49.193Z,17.43
2023-03-03T21:43:55.206Z,19.17
2023-03-03T21:48:58.966Z,18.03
2023-03-03T21:54:02.185Z,19.00
2023-03-03T21:59:06.907Z,19.13
2023-03-03T22:04:10.204Z,19.77
2023-03-03T22:09:13.467Z,17.27
2023-03-03T22:14:18.324Z,18.33
2023-03-03T22:19:21.729Z,19.47
2023-03-03T22:24:24.954Z,17.93
2023-03-03T22:29:29.573Z,19.93
2023-03-03T22:34:32.794Z,20.07
2023-03-03T22:39:36.015Z,20.00
2023-03-03T22:44:41.115Z,22.37
2023-03-03T22:49:44.329Z,22.47
2023-03-03T22:54:47.554Z,23.10
2023-03-03T22:59:52.590Z,22.33
2023-03-03T23:05:01.041Z,23.67
2023-03-03T23:10:04.959Z,25.17
2023-03-03T23:15:13.440Z,23.87
2023-03-03T23:20:19.123Z,23.83
2023-03-03T23:25:23.234Z,23.73
2023-03-03T23:30:28.989Z,23.67
2023-03-03T23:35:32.246Z,22.23
2023-03-03T23:40:35.563Z,22.90
2023-03-03T23:45:40.203Z,24.17
2023-03-03T23:50:43.437Z,23.57
2023-03-03T23:55:46.828Z,22.33
